Time;durP1;ratioP1;P1;durP2;ratioP2;P2;SDS_P1;SDS_P2;PMS_P1;PMS_P2;Temp;Humidity;BMP_temperature;BMP_pressure;BME280_temperature;BME280_humidity;BME280_pressure;Samples;Min_cycle;Max_cycle;Signal;HPM_P1;HPM_P2
2022/12/31 00:01:44;;;;;;;;;;;11.90;99.90;;;;;;5037822;28;19967;-56
2022/12/31 00:04:09;;;;;;;;;;;11.90;99.90;;;;;;5017260;28;19932;-53
2022/12/31 00:06:35;;;;;;;;;;;11.90;99.90;;;;;;5036135;28;20053;-52
2022/12/31 00:09:02;;;;;;;;;;;11.80;99.90;;;;;;5026873;28;20431;-52
2022/12/31 00:11:28;;;;;;;;;;;11.80;99.90;;;;;;5025618;28;20316;-54
2022/12/31 00:13:54;;;;;;;;;;;11.90;99.90;;;;;;5001537;28;19920;-52
2022/12/31 00:16:20;;;;;;;;;;;11.90;99.90;;;;;;5022184;28;20010;-54
2022/12/31 00:18:46;;;;;;;;;;;11.80;99.90;;;;;;5019259;28;20389;-52
2022/12/31 00:21:12;;;;;;;;;;;11.80;99.90;;;;;;5019278;28;20306;-53
2022/12/31 00:23:38;;;;;;;;;;;11.80;99.90;;;;;;5020081;28;19964;-52
2022/12/31 00:26:05;;;;;;;;;;;11.80;99.90;;;;;;5019420;28;20008;-54
2022/12/31 00:28:31;;;;;;;;;;;11.80;99.90;;;;;;5019847;28;20497;-56
2022/12/31 00:30:56;;;;;;;;;;;11.80;99.90;;;;;;5022355;28;19928;-53
2022/12/31 00:33:22;;;;;;;;;;;11.70;99.90;;;;;;5034343;28;19920;-56
2022/12/31 00:35:47;;;;;;;;;;;11.80;99.90;;;;;;5034296;28;19921;-56
2022/12/31 00:38:13;;;;;;;;;;;11.70;99.90;;;;;;5021164;28;19975;-54
2022/12/31 00:40:38;;;;;;;;;;;11.70;99.90;;;;;;5033632;28;19921;-51
2022/12/31 00:43:03;;;;;;;;;;;11.70;99.90;;;;;;5027047;28;20678;-51
2022/12/31 00:45:29;;;;;;;;;;;11.70;99.90;;;;;;5027400;28;19925;-52
2022/12/31 00:47:54;;;;;;;;;;;11.70;99.90;;;;;;5031117;28;19924;-51
2022/12/31 00:50:20;;;;;;;;;;;11.70;99.90;;;;;;5028069;28;20563;-51
2022/12/31 00:52:45;;;;;;;;;;;11.70;99.90;;;;;;5010410;28;19928;-53
2022/12/31 00:55:11;;;;;;;;;;;11.70;99.90;;;;;;5011697;28;19970;-55
2022/12/31 00:57:36;;;;;;;;;;;11.60;99.90;;;;;;5023952;28;19924;-56
2022/12/31 01:00:02;;;;;;;;;;;11.70;99.90;;;;;;5020094;28;20391;-56
2022/12/31 01:02:28;;;;;;;;;;;11.70;99.90;;;;;;5018457;28;19941;-57
2022/12/31 01:04:53;;;;;;;;;;;11.60;99.90;;;;;;5018588;28;19940;-55
2022/12/31 01:07:19;;;;;;;;;;;11.60;99.90;;;;;;5000918;28;20342;-56
2022/12/31 01:09:45;;;;;;;;;;;11.60;99.90;;;;;;5021586;28;19921;-54
2022/12/31 01:12:10;;;;;;;;;;;11.60;99.90;;;;;;5021824;28;20344;-56
2022/12/31 01:14:36;;;;;;;;;;;11.60;99.90;;;;;;5005374;28;19921;-56
2022/12/31 01:17:01;;;;;;;;;;;11.60;99.90;;;;;;4984749;28;19929;-57
2022/12/31 01:19:28;;;;;;;;;;;11.60;99.90;;;;;;5025148;28;20387;-56
2022/12/31 01:21:54;;;;;;;;;;;11.50;99.90;;;;;;5021907;28;19967;-54
2022/12/31 01:24:20;;;;;;;;;;;11.50;99.90;;;;;;5019602;28;20534;-57
2022/12/31 01:26:46;;;;;;;;;;;11.50;99.90;;;;;;5023072;28;19921;-54
2022/12/31 01:29:12;;;;;;;;;;;11.50;99.90;;;;;;5018301;28;20276;-57
2022/12/31 01:31:37;;;;;;;;;;;11.50;99.90;;;;;;5018241;28;19975;-55
2022/12/31 01:34:04;;;;;;;;;;;11.50;99.90;;;;;;5024758;28;19925;-54
2022/12/31 01:36:30;;;;;;;;;;;11.50;99.90;;;;;;5026724;28;20024;-57
2022/12/31 01:38:57;;;;;;;;;;;11.50;99.90;;;;;;5022482;28;19957;-54
2022/12/31 01:41:24;;;;;;;;;;;11.50;99.90;;;;;;5021847;28;19933;-55
2022/12/31 01:43:54;;;;;;;;;;;11.40;99.90;;;;;;5025599;28;19983;-53
2022/12/31 01:46:32;;;;;;;;;;;11.40;99.90;;;;;;5023753;28;19927;-56
2022/12/31 01:49:00;;;;;;;;;;;11.50;99.90;;;;;;5025081;28;20012;-51
2022/12/31 01:51:27;;;;;;;;;;;11.40;99.90;;;;;;5024278;28;19940;-51
2022/12/31 01:53:53;;;;;;;;;;;11.40;99.90;;;;;;5026264;28;19961;-53
2022/12/31 01:56:19;;;;;;;;;;;11.40;99.90;;;;;;5025392;28;19968;-52
2022/12/31 01:58:47;;;;;;;;;;;11.40;99.90;;;;;;5026376;28;19921;-51
2022/12/31 02:01:16;;;;;;;;;;;11.40;99.90;;;;;;5025124;28;19921;-55
2022/12/31 02:03:42;;;;;;;;;;;11.30;99.90;;;;;;5025095;28;20067;-55
2022/12/31 02:06:13;;;;;;;;;;;11.30;99.90;;;;;;5022886;28;20008;-53
2022/12/31 02:08:38;;;;;;;;;;;11.30;99.90;;;;;;5002977;28;19946;-55
2022/12/31 02:11:23;;;;;;;;;;;11.30;99.90;;;;;;5021088;28;19924;-56
2022/12/31 02:13:48;;;;;;;;;;;11.30;99.90;;;;;;5001121;28;20417;-55
2022/12/31 02:16:24;;;;;;;;;;;11.30;99.90;;;;;;5017241;28;19929;-56
2022/12/31 02:19:09;;;;;;;;;;;11.20;99.90;;;;;;5014597;28;20427;-56
2022/12/31 02:21:45;;;;;;;;;;;11.30;99.90;;;;;;5021434;28;20338;-53
2022/12/31 02:24:11;;;;;;;;;;;11.30;99.90;;;;;;5020313;28;20506;-55
2022/12/31 02:26:45;;;;;;;;;;;11.20;99.90;;;;;;5019431;28;19921;-53
2022/12/31 02:29:30;;;;;;;;;;;11.20;99.90;;;;;;5017673;28;19935;-55
2022/12/31 02:32:08;;;;;;;;;;;11.20;99.90;;;;;;5018963;28;19979;-55
2022/12/31 02:34:40;;;;;;;;;;;11.20;99.90;;;;;;5034026;28;19964;-54
2022/12/31 02:37:09;;;;;;;;;;;11.20;99.90;;;;;;5036076;28;19943;-56
2022/12/31 02:39:35;;;;;;;;;;;11.20;99.90;;;;;;5036169;28;19928;-54
2022/12/31 02:42:01;;;;;;;;;;;11.20;99.90;;;;;;5019539;28;19922;-51
2022/12/31 02:44:31;;;;;;;;;;;11.20;99.90;;;;;;5020911;28;19921;-53
2022/12/31 02:46:56;;;;;;;;;;;11.20;99.90;;;;;;5023733;28;19960;-55
2022/12/31 02:49:25;;;;;;;;;;;11.10;99.90;;;;;;5025864;28;19975;-52
2022/12/31 02:52:05;;;;;;;;;;;11.10;99.90;;;;;;5024658;28;19935;-56
2022/12/31 02:54:45;;;;;;;;;;;11.10;99.90;;;;;;5029058;28;19921;-51
2022/12/31 02:57:18;;;;;;;;;;;11.10;99.90;;;;;;5007403;28;19925;-53
2022/12/31 03:02:40;;;;;;;;;;;11.10;99.90;;;;;;5024185;28;19928;-51
2022/12/31 03:05:07;;;;;;;;;;;11.10;99.90;;;;;;5018943;28;19925;-51
2022/12/31 03:07:33;;;;;;;;;;;11.10;99.90;;;;;;5020340;28;20640;-53
2022/12/31 03:10:00;;;;;;;;;;;11.10;99.90;;;;;;5021717;28;19921;-53
2022/12/31 03:12:45;;;;;;;;;;;11.10;99.90;;;;;;5021480;28;19921;-52
2022/12/31 03:15:19;;;;;;;;;;;11.00;99.90;;;;;;5021971;28;19999;-57
2022/12/31 03:18:04;;;;;;;;;;;11.10;99.90;;;;;;5022443;28;19932;-57
2022/12/31 03:23:22;;;;;;;;;;;11.10;99.90;;;;;;5024299;28;19926;-55
2022/12/31 03:25:48;;;;;;;;;;;11.10;99.90;;;;;;5032625;28;19921;-54
2022/12/31 03:28:15;;;;;;;;;;;11.10;99.90;;;;;;5032924;28;19921;-53
2022/12/31 03:30:42;;;;;;;;;;;11.10;99.90;;;;;;5029870;28;20023;-54
2022/12/31 03:33:07;;;;;;;;;;;11.10;99.90;;;;;;5031677;28;20449;-55
2022/12/31 03:35:34;;;;;;;;;;;11.10;99.90;;;;;;5027441;28;19975;-56
2022/12/31 03:37:59;;;;;;;;;;;11.10;99.90;;;;;;5030932;28;19929;-54
2022/12/31 03:40:25;;;;;;;;;;;11.10;99.90;;;;;;5023665;28;19946;-56
2022/12/31 03:42:51;;;;;;;;;;;11.10;99.90;;;;;;5022569;28;19928;-53
2022/12/31 03:45:17;;;;;;;;;;;11.10;99.90;;;;;;5021328;28;19925;-54
2022/12/31 03:47:42;;;;;;;;;;;11.10;99.90;;;;;;5023317;28;19932;-52
2022/12/31 03:50:09;;;;;;;;;;;11.10;99.90;;;;;;5023458;28;19928;-55
2022/12/31 03:52:34;;;;;;;;;;;11.10;99.90;;;;;;5024329;28;19929;-55
2022/12/31 03:55:01;;;;;;;;;;;11.10;99.90;;;;;;5024193;28;19921;-52
2022/12/31 03:57:27;;;;;;;;;;;11.10;99.90;;;;;;5025942;28;19936;-55
2022/12/31 03:59:53;;;;;;;;;;;11.00;99.90;;;;;;5029127;28;19921;-56
2022/12/31 04:02:18;;;;;;;;;;;11.10;99.90;;;;;;5028445;28;19967;-54
2022/12/31 04:04:44;;;;;;;;;;;11.10;99.90;;;;;;5025785;28;19929;-58
2022/12/31 04:07:09;;;;;;;;;;;11.10;99.90;;;;;;5025158;28;20015;-55
2022/12/31 04:09:35;;;;;;;;;;;11.00;99.90;;;;;;5023325;28;19929;-56
2022/12/31 04:12:00;;;;;;;;;;;11.10;99.90;;;;;;5024255;28;19925;-55
2022/12/31 04:14:26;;;;;;;;;;;11.10;99.90;;;;;;5025219;28;19932;-51
2022/12/31 04:16:51;;;;;;;;;;;11.00;99.90;;;;;;5025355;28;20558;-57
2022/12/31 04:19:17;;;;;;;;;;;11.00;99.90;;;;;;5022100;28;20264;-53
2022/12/31 04:21:42;;;;;;;;;;;11.00;99.90;;;;;;5024270;28;19921;-56
2022/12/31 04:24:08;;;;;;;;;;;11.00;99.90;;;;;;5025306;28;19971;-56
2022/12/31 04:26:34;;;;;;;;;;;11.00;99.90;;;;;;5023579;28;20410;-57
2022/12/31 04:28:59;;;;;;;;;;;11.00;99.90;;;;;;5022391;28;19932;-53
2022/12/31 04:31:25;;;;;;;;;;;10.90;99.90;;;;;;5007403;28;19929;-58
2022/12/31 04:33:50;;;;;;;;;;;10.90;99.90;;;;;;5028405;28;19964;-57
2022/12/31 04:36:16;;;;;;;;;;;10.90;99.90;;;;;;5030833;28;20001;-56
2022/12/31 04:38:41;;;;;;;;;;;10.90;99.90;;;;;;5028905;28;19944;-56
2022/12/31 04:41:16;;;;;;;;;;;10.90;99.90;;;;;;5026730;28;19986;-56
2022/12/31 04:43:42;;;;;;;;;;;10.90;99.90;;;;;;5024493;28;19959;-53
2022/12/31 04:46:07;;;;;;;;;;;10.80;99.90;;;;;;5022016;28;19984;-56
2022/12/31 04:48:33;;;;;;;;;;;10.80;99.90;;;;;;5021697;28;19968;-55
2022/12/31 04:50:59;;;;;;;;;;;10.80;99.90;;;;;;5023557;28;21137;-56
2022/12/31 04:53:24;;;;;;;;;;;10.90;99.90;;;;;;5023452;28;19968;-55
2022/12/31 04:55:50;;;;;;;;;;;10.90;99.90;;;;;;5024003;28;19921;-56
2022/12/31 04:58:15;;;;;;;;;;;10.90;99.90;;;;;;5020823;28;19921;-57
2022/12/31 05:00:41;;;;;;;;;;;10.90;99.90;;;;;;5022792;28;20291;-56
2022/12/31 05:03:06;;;;;;;;;;;10.90;99.90;;;;;;5001610;28;19972;-56
2022/12/31 05:05:32;;;;;;;;;;;11.00;99.90;;;;;;5019489;28;19925;-57
2022/12/31 05:07:57;;;;;;;;;;;10.90;99.90;;;;;;5018484;28;20008;-55
2022/12/31 05:10:23;;;;;;;;;;;11.00;99.90;;;;;;5018407;28;19932;-55
2022/12/31 05:12:49;;;;;;;;;;;11.10;99.90;;;;;;5018821;28;20275;-54
2022/12/31 05:15:14;;;;;;;;;;;11.00;99.90;;;;;;5000290;28;19925;-52
2022/12/31 05:17:40;;;;;;;;;;;11.10;99.90;;;;;;5019730;28;19956;-54
2022/12/31 05:20:05;;;;;;;;;;;11.10;99.90;;;;;;5020841;28;20297;-56
2022/12/31 05:22:31;;;;;;;;;;;11.10;99.90;;;;;;5018472;28;19928;-54
2022/12/31 05:24:58;;;;;;;;;;;11.10;99.90;;;;;;5019297;28;19921;-53
2022/12/31 05:27:23;;;;;;;;;;;11.10;99.90;;;;;;5019998;28;20458;-55
2022/12/31 05:29:49;;;;;;;;;;;11.00;99.90;;;;;;5018857;28;19929;-51
2022/12/31 05:32:14;;;;;;;;;;;11.10;99.90;;;;;;5019083;28;20290;-56
2022/12/31 05:34:40;;;;;;;;;;;11.00;99.90;;;;;;5017799;28;20605;-55
2022/12/31 05:37:05;;;;;;;;;;;11.00;99.90;;;;;;5018284;28;19936;-57
2022/12/31 05:39:31;;;;;;;;;;;11.00;99.90;;;;;;5018199;28;19925;-55
2022/12/31 05:41:56;;;;;;;;;;;11.10;99.90;;;;;;5017734;28;19929;-54
2022/12/31 05:44:22;;;;;;;;;;;11.00;99.90;;;;;;5017396;28;19925;-54
2022/12/31 05:46:47;;;;;;;;;;;11.00;99.90;;;;;;4983082;28;19925;-56
2022/12/31 05:49:13;;;;;;;;;;;11.00;99.90;;;;;;4999483;28;19929;-54
2022/12/31 05:51:38;;;;;;;;;;;11.00;99.90;;;;;;4999367;28;20342;-51
2022/12/31 05:54:04;;;;;;;;;;;11.10;99.90;;;;;;5017967;28;20017;-55
2022/12/31 05:56:30;;;;;;;;;;;11.00;99.90;;;;;;5021931;28;19984;-53
2022/12/31 05:58:55;;;;;;;;;;;11.00;99.90;;;;;;5026254;28;19925;-56
2022/12/31 06:01:21;;;;;;;;;;;11.00;99.90;;;;;;5025822;28;19975;-53
2022/12/31 06:03:46;;;;;;;;;;;11.00;99.90;;;;;;5025592;28;19955;-53
2022/12/31 06:06:12;;;;;;;;;;;11.00;99.90;;;;;;5025595;28;21467;-52
2022/12/31 06:08:38;;;;;;;;;;;11.00;99.90;;;;;;5025753;28;20429;-55
2022/12/31 06:11:03;;;;;;;;;;;11.00;99.90;;;;;;5026791;28;19963;-53
2022/12/31 06:13:29;;;;;;;;;;;11.00;99.90;;;;;;5026654;28;19929;-53
2022/12/31 06:15:54;;;;;;;;;;;11.00;99.90;;;;;;5025245;28;19967;-55
2022/12/31 06:18:20;;;;;;;;;;;11.00;99.90;;;;;;5007068;28;19933;-54
2022/12/31 06:20:45;;;;;;;;;;;11.00;99.90;;;;;;5025890;28;19956;-53
2022/12/31 06:23:11;;;;;;;;;;;11.00;99.90;;;;;;5025899;28;19967;-56
2022/12/31 06:25:36;;;;;;;;;;;10.90;99.90;;;;;;5025336;28;19927;-52
2022/12/31 06:28:03;;;;;;;;;;;10.90;99.90;;;;;;5019360;28;19925;-57
2022/12/31 06:30:28;;;;;;;;;;;10.90;99.90;;;;;;4993561;28;19921;-54
2022/12/31 06:32:54;;;;;;;;;;;11.00;99.90;;;;;;4978100;28;19922;-52
2022/12/31 06:35:20;;;;;;;;;;;10.90;99.90;;;;;;4983901;28;19940;-57
2022/12/31 06:37:46;;;;;;;;;;;10.90;99.90;;;;;;4983735;28;19976;-51
2022/12/31 06:40:12;;;;;;;;;;;10.90;99.90;;;;;;4980530;28;20008;-56
2022/12/31 06:42:38;;;;;;;;;;;11.00;99.90;;;;;;4977484;28;20332;-55
2022/12/31 06:45:04;;;;;;;;;;;11.00;99.90;;;;;;4992958;28;20023;-55
2022/12/31 06:47:29;;;;;;;;;;;11.00;99.90;;;;;;4978434;28;19929;-55
2022/12/31 06:49:55;;;;;;;;;;;10.90;99.90;;;;;;4977724;28;20345;-52
2022/12/31 06:52:20;;;;;;;;;;;10.90;99.90;;;;;;4978047;28;19932;-55
2022/12/31 06:54:46;;;;;;;;;;;10.90;99.90;;;;;;4979103;28;19921;-54
2022/12/31 06:57:12;;;;;;;;;;;10.90;99.90;;;;;;4983610;28;19921;-55
2022/12/31 06:59:37;;;;;;;;;;;10.90;99.90;;;;;;4981583;28;19925;-54
2022/12/31 07:02:17;;;;;;;;;;;10.90;99.90;;;;;;4978391;28;20095;-55
2022/12/31 07:04:43;;;;;;;;;;;10.90;99.90;;;;;;4977355;28;19921;-52
2022/12/31 07:07:23;;;;;;;;;;;10.90;99.90;;;;;;4980460;28;20028;-53
2022/12/31 07:09:52;;;;;;;;;;;11.00;99.90;;;;;;4981925;28;19921;-53
2022/12/31 07:12:36;;;;;;;;;;;11.00;99.90;;;;;;4984432;28;20145;-56
2022/12/31 07:15:21;;;;;;;;;;;11.00;99.90;;;;;;4981141;28;20028;-57
2022/12/31 07:17:50;;;;;;;;;;;11.00;99.90;;;;;;4983573;28;19922;-53
2022/12/31 07:20:17;;;;;;;;;;;11.00;99.90;;;;;;4977560;28;20020;-52
2022/12/31 07:22:43;;;;;;;;;;;11.00;99.90;;;;;;4977664;28;19921;-53
2022/12/31 07:25:12;;;;;;;;;;;11.00;99.90;;;;;;4984061;28;19929;-55
2022/12/31 07:27:56;;;;;;;;;;;11.00;99.90;;;;;;4983142;28;20042;-52
2022/12/31 07:30:28;;;;;;;;;;;11.00;99.90;;;;;;5019233;28;21184;-56
2022/12/31 07:33:13;;;;;;;;;;;11.10;99.90;;;;;;5016060;28;19920;-52
2022/12/31 07:35:48;;;;;;;;;;;11.10;99.90;;;;;;5016715;28;19921;-53
2022/12/31 07:38:14;;;;;;;;;;;11.10;99.90;;;;;;5021610;28;20024;-54
2022/12/31 07:40:42;;;;;;;;;;;11.10;99.90;;;;;;5016528;28;21324;-52
2022/12/31 07:43:22;;;;;;;;;;;11.10;99.90;;;;;;5017670;28;19927;-51
2022/12/31 07:45:51;;;;;;;;;;;11.20;99.90;;;;;;5015618;28;19975;-56
2022/12/31 07:48:22;;;;;;;;;;;11.10;99.90;;;;;;4996584;28;19929;-55
2022/12/31 07:50:47;;;;;;;;;;;11.20;99.90;;;;;;5018739;28;20029;-54
2022/12/31 07:53:13;;;;;;;;;;;11.30;99.90;;;;;;5025680;28;20297;-54
2022/12/31 07:55:39;;;;;;;;;;;11.20;99.90;;;;;;5029217;28;19944;-56
2022/12/31 07:58:30;;;;;;;;;;;11.20;99.90;;;;;;5031449;28;19975;-56
2022/12/31 08:00:57;;;;;;;;;;;11.30;99.90;;;;;;4999909;28;20052;-57
2022/12/31 08:03:43;;;;;;;;;;;11.30;99.90;;;;;;5028119;28;20402;-57
2022/12/31 08:06:11;;;;;;;;;;;11.40;99.90;;;;;;5033447;28;20302;-56
2022/12/31 08:08:57;;;;;;;;;;;11.40;99.90;;;;;;5028568;28;20367;-54
2022/12/31 08:11:28;;;;;;;;;;;11.40;99.90;;;;;;5028191;28;19928;-56
2022/12/31 08:13:55;;;;;;;;;;;11.50;99.90;;;;;;5010090;28;19925;-56
2022/12/31 08:16:20;;;;;;;;;;;11.50;99.90;;;;;;5027956;28;20329;-56
2022/12/31 08:18:46;;;;;;;;;;;11.60;99.90;;;;;;5027028;28;19974;-57
2022/12/31 08:21:24;;;;;;;;;;;11.70;99.90;;;;;;5024641;28;19986;-55
2022/12/31 08:24:08;;;;;;;;;;;11.60;99.90;;;;;;5023718;28;19936;-57
2022/12/31 08:26:43;;;;;;;;;;;11.70;99.90;;;;;;5000821;28;19944;-55
2022/12/31 08:29:21;;;;;;;;;;;11.70;99.90;;;;;;5016560;28;19925;-54
2022/12/31 08:31:46;;;;;;;;;;;11.80;99.90;;;;;;5017770;28;19921;-53
2022/12/31 08:34:31;;;;;;;;;;;11.80;99.90;;;;;;5018535;28;19921;-56
2022/12/31 08:37:09;;;;;;;;;;;11.80;99.90;;;;;;5019473;28;20378;-54
2022/12/31 08:39:40;;;;;;;;;;;12.00;99.90;;;;;;5016999;28;19929;-53
2022/12/31 08:42:26;;;;;;;;;;;11.90;99.90;;;;;;5019679;28;20012;-56
2022/12/31 08:44:56;;;;;;;;;;;12.00;99.90;;;;;;5023540;28;20003;-53
2022/12/31 08:47:22;;;;;;;;;;;;;;;;;;5023329;28;20284;-52
2022/12/31 08:49:48;;;;;;;;;;;;;;;;;;5024337;28;19929;-51
2022/12/31 08:52:14;;;;;;;;;;;;;;;;;;5025638;28;20298;-52
2022/12/31 08:54:40;;;;;;;;;;;;;;;;;;5026320;28;19921;-51
2022/12/31 08:57:06;;;;;;;;;;;;;;;;;;5029161;28;20441;-51
2022/12/31 08:59:32;;;;;;;;;;;;;;;;;;5029308;28;19925;-53
2022/12/31 09:01:58;;;;;;;;;;;;;;;;;;5028991;28;20358;-56
2022/12/31 09:04:25;;;;;;;;;;;;;;;;;;5004758;28;20022;-54
2022/12/31 09:06:51;;;;;;;;;;;;;;;;;;5024799;28;19921;-56
2022/12/31 09:09:17;;;;;;;;;;;;;;;;;;5023233;28;19990;-54
2022/12/31 09:11:42;;;;;;;;;;;;;;;;;;5020370;28;19957;-53
2022/12/31 09:14:08;;;;;;;;;;;;;;;;;;5007287;28;19968;-54
2022/12/31 09:16:34;;;;;;;;;;;;;;;;;;5027867;28;20351;-55
2022/12/31 09:19:00;;;;;;;;;;;;;;;;;;5024127;28;19972;-53
2022/12/31 09:21:26;;;;;;;;;;;12.40;99.90;;;;;;5025582;28;19982;-52
2022/12/31 09:23:52;;;;;;;;;;;12.50;99.90;;;;;;5022282;28;19925;-56
2022/12/31 09:26:20;;;;;;;;;;;12.50;99.90;;;;;;5029629;28;20348;-54
2022/12/31 09:28:52;;;;;;;;;;;12.40;99.90;;;;;;5027356;28;20287;-57
2022/12/31 09:31:37;;;;;;;;;;;12.50;99.90;;;;;;5026858;28;19924;-55
2022/12/31 09:34:03;;;;;;;;;;;12.50;99.90;;;;;;5026115;28;19921;-52
2022/12/31 09:36:36;;;;;;;;;;;12.50;99.90;;;;;;5034058;28;19921;-55
2022/12/31 09:39:09;;;;;;;;;;;12.40;99.90;;;;;;5032967;28;20419;-55
2022/12/31 09:41:53;;;;;;;;;;;12.50;99.90;;;;;;5029196;28;20051;-53
2022/12/31 09:44:45;;;;;;;;;;;12.50;99.90;;;;;;5025322;28;19928;-53
2022/12/31 09:47:19;;;;;;;;;;;12.50;99.90;;;;;;5006914;28;19995;-52
2022/12/31 09:50:03;;;;;;;;;;;12.40;99.90;;;;;;5021391;28;19922;-51
2022/12/31 09:52:35;;;;;;;;;;;12.50;99.90;;;;;;5030036;28;20294;-51
2022/12/31 09:55:06;;;;;;;;;;;12.50;99.90;;;;;;5027408;28;20409;-50
2022/12/31 09:57:38;;;;;;;;;;;12.60;99.90;;;;;;5028568;28;20372;-56
2022/12/31 10:00:19;;;;;;;;;;;12.60;99.90;;;;;;5010695;28;19932;-51
2022/12/31 10:03:05;;;;;;;;;;;12.60;99.90;;;;;;5022570;28;19973;-53
2022/12/31 10:05:30;;;;;;;;;;;12.60;99.90;;;;;;5021287;28;20029;-51
2022/12/31 10:08:08;;;;;;;;;;;12.60;99.90;;;;;;5021258;28;20382;-54
2022/12/31 10:10:40;;;;;;;;;;;12.60;99.90;;;;;;5018228;28;19929;-55
2022/12/31 10:13:12;;;;;;;;;;;12.60;99.90;;;;;;5040769;22;19963;-55
2022/12/31 10:15:43;;;;;;;;;;;12.70;99.90;;;;;;5040091;28;19917;-53
2022/12/31 10:18:27;;;;;;;;;;;12.80;99.90;;;;;;5037534;28;19925;-53
2022/12/31 10:21:02;;;;;;;;;;;12.80;99.90;;;;;;5014824;28;20031;-56
2022/12/31 10:23:47;;;;;;;;;;;12.80;99.90;;;;;;5031873;28;19939;-55
2022/12/31 10:26:23;;;;;;;;;;;12.90;99.90;;;;;;5030944;28;20286;-54
2022/12/31 10:28:57;;;;;;;;;;;12.90;99.90;;;;;;5021075;28;19933;-55
2022/12/31 10:31:58;;;;;;;;;;;13.00;99.90;;;;;;5029399;28;20323;-54
2022/12/31 10:34:38;;;;;;;;;;;13.10;99.90;;;;;;4982584;28;19934;-53
2022/12/31 10:37:13;;;;;;;;;;;13.00;99.90;;;;;;4987526;28;19921;-52
2022/12/31 10:39:57;;;;;;;;;;;13.10;99.90;;;;;;4989504;28;19987;-52
2022/12/31 10:42:41;;;;;;;;;;;13.10;99.90;;;;;;4968363;28;19941;-52
2022/12/31 10:45:25;;;;;;;;;;;13.10;99.90;;;;;;4974274;28;19949;-53
2022/12/31 10:48:09;;;;;;;;;;;13.20;99.90;;;;;;4964855;28;19973;-52
2022/12/31 10:50:40;;;;;;;;;;;13.10;99.90;;;;;;4987765;28;19980;-51
2022/12/31 10:53:17;;;;;;;;;;;13.20;99.90;;;;;;4986406;28;19937;-53
2022/12/31 10:56:00;;;;;;;;;;;13.20;99.90;;;;;;4988222;28;19929;-57
2022/12/31 10:58:44;;;;;;;;;;;13.20;99.90;;;;;;4984244;28;20280;-55
2022/12/31 11:01:25;;;;;;;;;;;13.20;99.90;;;;;;4981495;28;20028;-52
2022/12/31 11:04:09;;;;;;;;;;;13.10;99.90;;;;;;4985342;28;20269;-52
2022/12/31 11:06:53;;;;;;;;;;;13.10;99.90;;;;;;4985040;28;20343;-53
2022/12/31 11:09:27;;;;;;;;;;;13.10;99.90;;;;;;5023400;28;19931;-53
2022/12/31 11:11:53;;;;;;;;;;;13.10;99.90;;;;;;5029521;28;20097;-52
2022/12/31 11:14:37;;;;;;;;;;;13.10;99.90;;;;;;5042884;22;20395;-54
2022/12/31 11:17:14;;;;;;;;;;;13.10;99.90;;;;;;5013291;28;19928;-55
2022/12/31 11:19:42;;;;;;;;;;;13.20;99.90;;;;;;5010653;28;19976;-55
2022/12/31 11:22:43;;;;;;;;;;;13.20;99.90;;;;;;5014129;28;19921;-55
2022/12/31 11:25:12;;;;;;;;;;;13.20;99.90;;;;;;4949617;28;19929;-55
2022/12/31 11:27:44;;;;;;;;;;;13.20;99.90;;;;;;4936093;29;19922;-54
2022/12/31 11:30:28;;;;;;;;;;;13.20;99.90;;;;;;4951550;29;19969;-55
2022/12/31 11:32:53;;;;;;;;;;;13.20;99.90;;;;;;4934053;29;19922;-56
2022/12/31 11:35:28;;;;;;;;;;;13.20;99.90;;;;;;4950515;29;19932;-56
2022/12/31 11:38:02;;;;;;;;;;;13.20;99.90;;;;;;4948485;29;19943;-54
2022/12/31 11:40:35;;;;;;;;;;;13.30;99.90;;;;;;4948902;29;20285;-56
2022/12/31 11:43:09;;;;;;;;;;;13.30;99.90;;;;;;4952087;29;20505;-56
2022/12/31 11:45:53;;;;;;;;;;;13.30;99.90;;;;;;4947939;29;19953;-55
2022/12/31 11:48:35;;;;;;;;;;;13.40;99.90;;;;;;4946326;29;19993;-56
2022/12/31 11:51:19;;;;;;;;;;;13.40;99.90;;;;;;4932415;29;19926;-57
2022/12/31 11:53:50;;;;;;;;;;;13.40;99.90;;;;;;4949615;29;19955;-56
2022/12/31 11:56:17;;;;;;;;;;;13.40;99.90;;;;;;4950766;29;20392;-56
2022/12/31 11:58:48;;;;;;;;;;;13.40;99.90;;;;;;4971617;28;20004;-56
2022/12/31 12:01:17;;;;;;;;;;;13.40;99.90;;;;;;5017021;28;20047;-56
2022/12/31 12:03:43;;;;;;;;;;;13.40;99.90;;;;;;5015492;28;19921;-57
2022/12/31 12:06:11;;;;;;;;;;;13.50;99.90;;;;;;5020016;28;20360;-53
2022/12/31 12:08:36;;;;;;;;;;;13.50;99.90;;;;;;5017069;28;19965;-55
2022/12/31 12:11:04;;;;;;;;;;;13.60;99.90;;;;;;5015455;28;19975;-53
2022/12/31 12:13:30;;;;;;;;;;;13.60;99.90;;;;;;5015322;28;19921;-52
2022/12/31 12:15:59;;;;;;;;;;;13.60;99.90;;;;;;5016544;28;19923;-54
2022/12/31 12:18:28;;;;;;;;;;;13.60;99.90;;;;;;5014291;28;19956;-51
2022/12/31 12:21:01;;;;;;;;;;;13.60;99.90;;;;;;5014439;28;19928;-54
2022/12/31 12:23:27;;;;;;;;;;;13.60;99.90;;;;;;5013601;28;20292;-54
2022/12/31 12:25:52;;;;;;;;;;;13.60;99.90;;;;;;5016872;28;19921;-56
2022/12/31 12:28:22;;;;;;;;;;;13.60;99.90;;;;;;5014089;28;20323;-57
2022/12/31 12:31:11;;;;;;;;;;;13.60;99.90;;;;;;5018675;28;19921;-55
2022/12/31 12:33:41;;;;;;;;;;;13.60;99.90;;;;;;5012395;28;20456;-55
2022/12/31 12:36:08;;;;;;;;;;;13.60;99.90;;;;;;5012833;28;19930;-54
2022/12/31 12:38:34;;;;;;;;;;;13.60;99.90;;;;;;5019362;28;19928;-55
2022/12/31 12:41:01;;;;;;;;;;;13.60;99.90;;;;;;5019068;28;19929;-54
2022/12/31 12:43:31;;;;;;;;;;;13.60;99.90;;;;;;5017708;28;19929;-55
2022/12/31 12:46:01;;;;;;;;;;;13.60;99.90;;;;;;5016255;28;20299;-56
2022/12/31 12:48:33;;;;;;;;;;;13.60;99.90;;;;;;5018142;28;20304;-54
2022/12/31 12:50:59;;;;;;;;;;;13.60;99.90;;;;;;5016010;28;19921;-56
2022/12/31 12:53:33;;;;;;;;;;;13.60;99.90;;;;;;5016934;28;20012;-54
2022/12/31 12:56:05;;;;;;;;;;;13.70;99.90;;;;;;5016511;28;20016;-55
2022/12/31 12:58:37;;;;;;;;;;;13.60;99.90;;;;;;5023622;28;19921;-56
2022/12/31 13:01:22;;;;;;;;;;;13.60;99.90;;;;;;5014875;28;20034;-55
2022/12/31 13:03:57;;;;;;;;;;;13.60;99.90;;;;;;5016775;28;20007;-56
2022/12/31 13:06:44;;;;;;;;;;;13.60;99.90;;;;;;5028177;28;19982;-56
2022/12/31 13:09:12;;;;;;;;;;;13.60;99.90;;;;;;5013347;28;20016;-53
2022/12/31 13:11:56;;;;;;;;;;;13.70;99.90;;;;;;5015707;28;19921;-55
2022/12/31 13:14:21;;;;;;;;;;;13.70;99.90;;;;;;5009905;28;20319;-56
2022/12/31 13:16:50;;;;;;;;;;;13.80;99.90;;;;;;5015696;28;19928;-55
2022/12/31 13:19:26;;;;;;;;;;;13.70;99.90;;;;;;5024738;28;19991;-51
2022/12/31 13:22:12;;;;;;;;;;;13.70;99.90;;;;;;5028635;28;19921;-55
2022/12/31 13:24:59;;;;;;;;;;;13.70;99.90;;;;;;5007763;28;20037;-56
2022/12/31 13:27:28;;;;;;;;;;;13.80;99.90;;;;;;5011274;28;19975;-51
2022/12/31 13:29:55;;;;;;;;;;;13.80;99.90;;;;;;5021949;28;20374;-52
2022/12/31 13:32:24;;;;;;;;;;;13.70;99.90;;;;;;5029758;28;19921;-50
2022/12/31 13:34:53;;;;;;;;;;;13.70;99.90;;;;;;5030080;28;19925;-54
2022/12/31 13:37:32;;;;;;;;;;;13.70;99.90;;;;;;5034119;28;19983;-54
2022/12/31 13:40:04;;;;;;;;;;;13.70;99.90;;;;;;5026204;28;19921;-54
2022/12/31 13:42:41;;;;;;;;;;;13.80;99.90;;;;;;5014111;28;20399;-54
2022/12/31 13:45:12;;;;;;;;;;;13.80;99.90;;;;;;5016487;28;19931;-55
2022/12/31 13:47:41;;;;;;;;;;;13.80;99.90;;;;;;5020182;28;20025;-55
2022/12/31 13:50:13;;;;;;;;;;;13.80;99.90;;;;;;5014414;28;19972;-55
2022/12/31 13:52:41;;;;;;;;;;;13.80;99.90;;;;;;5013891;28;19921;-56
2022/12/31 13:55:14;;;;;;;;;;;13.80;99.90;;;;;;5014401;28;20307;-54
2022/12/31 13:57:52;;;;;;;;;;;13.80;99.90;;;;;;5020103;28;19925;-56
2022/12/31 14:00:19;;;;;;;;;;;13.80;99.90;;;;;;5013861;28;20387;-55
2022/12/31 14:02:53;;;;;;;;;;;13.80;99.90;;;;;;5027322;28;20042;-54
2022/12/31 14:05:24;;;;;;;;;;;13.80;99.90;;;;;;5012955;28;20372;-55
2022/12/31 14:07:52;;;;;;;;;;;13.90;99.90;;;;;;5014053;28;19925;-55
2022/12/31 14:10:20;;;;;;;;;;;13.90;99.90;;;;;;5014179;28;20012;-53
2022/12/31 14:12:51;;;;;;;;;;;13.90;99.90;;;;;;5013752;28;19928;-55
2022/12/31 14:15:22;;;;;;;;;;;13.90;99.90;;;;;;5027698;28;19921;-56
2022/12/31 14:17:55;;;;;;;;;;;13.90;99.90;;;;;;5012542;28;19922;-55
2022/12/31 14:20:21;;;;;;;;;;;13.90;99.90;;;;;;5013655;28;19944;-54
2022/12/31 14:23:04;;;;;;;;;;;13.90;99.90;;;;;;5013753;28;20363;-53
2022/12/31 14:25:45;;;;;;;;;;;13.90;99.90;;;;;;5014768;28;20383;-56
2022/12/31 14:28:15;;;;;;;;;;;13.90;99.90;;;;;;5033198;28;19928;-52
2022/12/31 14:30:42;;;;;;;;;;;13.80;99.90;;;;;;5028403;28;19921;-55
2022/12/31 14:33:28;;;;;;;;;;;13.80;99.90;;;;;;5013001;28;19922;-54
2022/12/31 14:35:56;;;;;;;;;;;13.80;99.90;;;;;;5019172;28;19928;-54
2022/12/31 14:38:22;;;;;;;;;;;13.80;99.90;;;;;;5031055;28;19929;-51
2022/12/31 14:41:06;;;;;;;;;;;13.80;99.90;;;;;;5032901;28;20275;-53
2022/12/31 14:43:34;;;;;;;;;;;13.70;99.90;;;;;;5031130;28;19971;-55
2022/12/31 14:46:05;;;;;;;;;;;13.70;99.90;;;;;;5020953;28;19932;-55